sensor_id;sensor_type;location;lat;lon;timestamp;pressure;altitude;pressure_sealevel;temperature;humidity
84714;BME280;74938;42.658;23.248;2023-12-20T00:01:00;94346.91;;;0.42;79.11
84714;BME280;74938;42.658;23.248;2023-12-20T00:03:25;94341.69;;;0.34;79.13
84714;BME280;74938;42.658;23.248;2023-12-20T00:05:51;94345.75;;;0.16;78.85
84714;BME280;74938;42.658;23.248;2023-12-20T00:08:16;94340.34;;;-0.01;79.99
84714;BME280;74938;42.658;23.248;2023-12-20T00:10:43;94326.16;;;-0.03;80.68
84714;BME280;74938;42.658;23.248;2023-12-20T00:13:09;94326.97;;;-0.03;79.98
84714;BME280;74938;42.658;23.248;2023-12-20T00:15:34;94319.56;;;0.15;79.80
84714;BME280;74938;42.658;23.248;2023-12-20T00:18:00;94327.03;;;0.17;80.20
84714;BME280;74938;42.658;23.248;2023-12-20T00:20:26;94310.50;;;0.32;78.83
84714;BME280;74938;42.658;23.248;2023-12-20T00:22:53;94318.38;;;0.29;80.02
84714;BME280;74938;42.658;23.248;2023-12-20T00:25:18;94304.88;;;0.38;80.18
84714;BME280;74938;42.658;23.248;2023-12-20T00:27:44;94307.34;;;0.49;78.73
84714;BME280;74938;42.658;23.248;2023-12-20T00:30:10;94298.59;;;0.42;80.25
84714;BME280;74938;42.658;23.248;2023-12-20T00:32:36;94301.84;;;0.54;79.47
84714;BME280;74938;42.658;23.248;2023-12-20T00:35:01;94284.31;;;0.60;78.41
84714;BME280;74938;42.658;23.248;2023-12-20T00:37:27;94281.63;;;0.52;78.27
84714;BME280;74938;42.658;23.248;2023-12-20T00:39:52;94285.03;;;0.13;78.83
84714;BME280;74938;42.658;23.248;2023-12-20T00:42:18;94281.75;;;0.01;79.74
84714;BME280;74938;42.658;23.248;2023-12-20T00:44:46;94282.56;;;0.02;79.46
84714;BME280;74938;42.658;23.248;2023-12-20T00:47:11;94282.69;;;-0.10;81.23
84714;BME280;74938;42.658;23.248;2023-12-20T00:49:38;94280.31;;;-0.02;81.02
84714;BME280;74938;42.658;23.248;2023-12-20T00:52:04;94283.56;;;0.10;79.94
84714;BME280;74938;42.658;23.248;2023-12-20T00:54:29;94283.06;;;-0.14;81.32
84714;BME280;74938;42.658;23.248;2023-12-20T00:56:55;94284.63;;;-0.23;79.98
84714;BME280;74938;42.658;23.248;2023-12-20T00:59:21;94280.38;;;-0.13;81.24
84714;BME280;74938;42.658;23.248;2023-12-20T01:01:46;94271.09;;;-0.03;81.00
84714;BME280;74938;42.658;23.248;2023-12-20T01:04:12;94265.22;;;0.07;79.66
84714;BME280;74938;42.658;23.248;2023-12-20T01:06:37;94265.81;;;-0.11;80.34
84714;BME280;74938;42.658;23.248;2023-12-20T01:09:03;94254.72;;;-0.10;80.17
84714;BME280;74938;42.658;23.248;2023-12-20T01:11:29;94257.69;;;-0.05;80.14
84714;BME280;74938;42.658;23.248;2023-12-20T01:13:54;94253.34;;;-0.23;81.16
84714;BME280;74938;42.658;23.248;2023-12-20T01:16:20;94254.72;;;-0.10;81.44
84714;BME280;74938;42.658;23.248;2023-12-20T01:18:46;94250.03;;;-0.14;81.41
84714;BME280;74938;42.658;23.248;2023-12-20T01:21:11;94252.06;;;-0.08;80.64
84714;BME280;74938;42.658;23.248;2023-12-20T01:23:36;94250.06;;;-0.05;80.13
84714;BME280;74938;42.658;23.248;2023-12-20T01:26:02;94239.75;;;-0.13;80.47
84714;BME280;74938;42.658;23.248;2023-12-20T01:28:29;94236.03;;;-0.09;80.50
84714;BME280;74938;42.658;23.248;2023-12-20T01:30:54;94233.88;;;-0.13;80.74
84714;BME280;74938;42.658;23.248;2023-12-20T01:33:20;94227.59;;;0.00;80.13
84714;BME280;74938;42.658;23.248;2023-12-20T01:35:49;94231.72;;;-0.18;80.42
84714;BME280;74938;42.658;23.248;2023-12-20T01:38:14;94222.94;;;-0.04;80.85
84714;BME280;74938;42.658;23.248;2023-12-20T01:40:39;94221.34;;;0.05;79.30
84714;BME280;74938;42.658;23.248;2023-12-20T01:43:07;94211.22;;;0.14;79.08
84714;BME280;74938;42.658;23.248;2023-12-20T01:45:34;94213.59;;;-0.04;80.50
84714;BME280;74938;42.658;23.248;2023-12-20T01:47:59;94209.53;;;-0.16;80.09
84714;BME280;74938;42.658;23.248;2023-12-20T01:50:28;94207.41;;;-0.20;80.78
84714;BME280;74938;42.658;23.248;2023-12-20T01:52:54;94200.22;;;-0.06;80.85
84714;BME280;74938;42.658;23.248;2023-12-20T01:55:22;94196.19;;;-0.18;80.46
84714;BME280;74938;42.658;23.248;2023-12-20T01:57:48;94198.53;;;-0.36;80.09
84714;BME280;74938;42.658;23.248;2023-12-20T02:00:14;94204.41;;;-0.35;81.67
84714;BME280;74938;42.658;23.248;2023-12-20T02:02:40;94190.63;;;-0.42;81.61
84714;BME280;74938;42.658;23.248;2023-12-20T02:05:06;94188.25;;;-0.24;80.18
84714;BME280;74938;42.658;23.248;2023-12-20T02:07:32;94189.44;;;-0.28;79.56
84714;BME280;74938;42.658;23.248;2023-12-20T02:09:58;94182.63;;;-0.38;79.81
84714;BME280;74938;42.658;23.248;2023-12-20T02:12:23;94190.13;;;-0.17;80.97
84714;BME280;74938;42.658;23.248;2023-12-20T02:14:49;94186.78;;;-0.27;81.26
84714;BME280;74938;42.658;23.248;2023-12-20T02:17:15;94178.66;;;-0.21;79.16
84714;BME280;74938;42.658;23.248;2023-12-20T02:19:41;94180.31;;;-0.01;79.73
84714;BME280;74938;42.658;23.248;2023-12-20T02:22:10;94176.56;;;0.13;78.42
84714;BME280;74938;42.658;23.248;2023-12-20T02:24:35;94174.28;;;0.20;77.94
84714;BME280;74938;42.658;23.248;2023-12-20T02:27:01;94165.34;;;0.16;79.12
84714;BME280;74938;42.658;23.248;2023-12-20T02:29:27;94157.44;;;0.19;78.59
84714;BME280;74938;42.658;23.248;2023-12-20T02:31:52;94156.13;;;0.15;78.10
84714;BME280;74938;42.658;23.248;2023-12-20T02:34:18;94151.78;;;-0.14;80.15
84714;BME280;74938;42.658;23.248;2023-12-20T02:36:43;94154.50;;;-0.06;80.32
84714;BME280;74938;42.658;23.248;2023-12-20T02:39:08;94144.09;;;0.17;78.74
84714;BME280;74938;42.658;23.248;2023-12-20T02:41:34;94143.53;;;0.04;79.48
84714;BME280;74938;42.658;23.248;2023-12-20T02:44:00;94145.81;;;0.07;78.91
84714;BME280;74938;42.658;23.248;2023-12-20T02:46:25;94143.94;;;0.18;79.05
84714;BME280;74938;42.658;23.248;2023-12-20T02:48:50;94149.41;;;0.04;78.94
84714;BME280;74938;42.658;23.248;2023-12-20T02:51:16;94138.84;;;-0.01;79.34
84714;BME280;74938;42.658;23.248;2023-12-20T02:53:41;94137.09;;;-0.10;79.93
84714;BME280;74938;42.658;23.248;2023-12-20T02:56:07;94142.69;;;-0.16;79.10
84714;BME280;74938;42.658;23.248;2023-12-20T02:58:32;94148.22;;;0.08;79.35
84714;BME280;74938;42.658;23.248;2023-12-20T03:00:57;94138.44;;;-0.06;80.27
84714;BME280;74938;42.658;23.248;2023-12-20T03:03:23;94140.56;;;-0.11;78.80
84714;BME280;74938;42.658;23.248;2023-12-20T03:05:48;94126.00;;;0.00;78.29
84714;BME280;74938;42.658;23.248;2023-12-20T03:08:14;94131.44;;;-0.33;80.30
84714;BME280;74938;42.658;23.248;2023-12-20T03:10:39;94136.84;;;-0.57;81.88
84714;BME280;74938;42.658;23.248;2023-12-20T03:13:04;94127.59;;;-0.67;81.87
84714;BME280;74938;42.658;23.248;2023-12-20T03:15:30;94145.34;;;-0.67;82.58
84714;BME280;74938;42.658;23.248;2023-12-20T03:17:55;94134.94;;;-0.64;82.39
84714;BME280;74938;42.658;23.248;2023-12-20T03:20:20;94134.16;;;-0.65;81.32
84714;BME280;74938;42.658;23.248;2023-12-20T03:22:46;94136.91;;;-0.78;81.98
84714;BME280;74938;42.658;23.248;2023-12-20T03:25:11;94132.09;;;-0.81;82.41
84714;BME280;74938;42.658;23.248;2023-12-20T03:27:37;94132.06;;;-0.90;82.30
84714;BME280;74938;42.658;23.248;2023-12-20T03:30:04;94132.63;;;-0.87;82.71
84714;BME280;74938;42.658;23.248;2023-12-20T03:32:30;94125.41;;;-0.82;81.11
84714;BME280;74938;42.658;23.248;2023-12-20T03:34:55;94116.03;;;-0.91;81.16
84714;BME280;74938;42.658;23.248;2023-12-20T03:37:21;94113.22;;;-0.57;81.76
84714;BME280;74938;42.658;23.248;2023-12-20T03:39:47;94115.19;;;-0.71;81.52
84714;BME280;74938;42.658;23.248;2023-12-20T03:42:12;94111.88;;;-0.52;80.26
84714;BME280;74938;42.658;23.248;2023-12-20T03:44:41;94114.94;;;-0.58;80.11
84714;BME280;74938;42.658;23.248;2023-12-20T03:47:06;94121.09;;;-0.60;81.38
84714;BME280;74938;42.658;23.248;2023-12-20T03:49:32;94121.66;;;-0.87;82.66
84714;BME280;74938;42.658;23.248;2023-12-20T03:51:57;94122.03;;;-0.92;82.99
84714;BME280;74938;42.658;23.248;2023-12-20T03:54:24;94127.25;;;-0.84;83.15
84714;BME280;74938;42.658;23.248;2023-12-20T03:56:49;94116.88;;;-0.81;81.41
84714;BME280;74938;42.658;23.248;2023-12-20T03:59:15;94114.19;;;-0.89;82.81
84714;BME280;74938;42.658;23.248;2023-12-20T04:01:44;94108.00;;;-0.96;82.54
84714;BME280;74938;42.658;23.248;2023-12-20T04:04:12;94103.00;;;-0.77;82.09
84714;BME280;74938;42.658;23.248;2023-12-20T04:06:38;94088.34;;;-0.63;81.57
84714;BME280;74938;42.658;23.248;2023-12-20T04:09:03;94093.84;;;-0.58;81.57
84714;BME280;74938;42.658;23.248;2023-12-20T04:11:29;94089.44;;;-0.56;80.60
84714;BME280;74938;42.658;23.248;2023-12-20T04:13:54;94084.88;;;-0.62;81.98
84714;BME280;74938;42.658;23.248;2023-12-20T04:16:19;94077.38;;;-0.74;81.67
84714;BME280;74938;42.658;23.248;2023-12-20T04:18:45;94089.19;;;-0.93;82.42
84714;BME280;74938;42.658;23.248;2023-12-20T04:21:10;94072.75;;;-0.99;83.46
84714;BME280;74938;42.658;23.248;2023-12-20T04:23:36;94086.88;;;-1.06;82.66
84714;BME280;74938;42.658;23.248;2023-12-20T04:26:01;94083.63;;;-0.87;83.33
84714;BME280;74938;42.658;23.248;2023-12-20T04:28:26;94070.19;;;-0.59;80.60
84714;BME280;74938;42.658;23.248;2023-12-20T04:30:55;94076.41;;;-0.82;82.08
84714;BME280;74938;42.658;23.248;2023-12-20T04:33:20;94072.75;;;-0.99;82.88
84714;BME280;74938;42.658;23.248;2023-12-20T04:35:46;94063.78;;;-1.03;82.84
84714;BME280;74938;42.658;23.248;2023-12-20T04:38:11;94056.41;;;-1.16;82.49
84714;BME280;74938;42.658;23.248;2023-12-20T04:40:37;94070.81;;;-1.16;82.71
84714;BME280;74938;42.658;23.248;2023-12-20T04:43:02;94062.47;;;-0.97;83.10
84714;BME280;74938;42.658;23.248;2023-12-20T04:45:28;94062.28;;;-1.15;84.23
84714;BME280;74938;42.658;23.248;2023-12-20T04:47:53;94067.19;;;-1.23;82.89
84714;BME280;74938;42.658;23.248;2023-12-20T04:50:18;94068.78;;;-1.22;82.79
84714;BME280;74938;42.658;23.248;2023-12-20T04:52:45;94060.50;;;-1.24;84.12
84714;BME280;74938;42.658;23.248;2023-12-20T04:55:10;94063.09;;;-1.35;85.13
84714;BME280;74938;42.658;23.248;2023-12-20T04:57:36;94066.31;;;-1.33;84.71
84714;BME280;74938;42.658;23.248;2023-12-20T05:00:01;94052.44;;;-1.39;83.49
84714;BME280;74938;42.658;23.248;2023-12-20T05:02:27;94060.28;;;-1.42;85.10
84714;BME280;74938;42.658;23.248;2023-12-20T05:04:52;94067.09;;;-1.43;85.20
84714;BME280;74938;42.658;23.248;2023-12-20T05:07:18;94059.25;;;-1.39;84.96
84714;BME280;74938;42.658;23.248;2023-12-20T05:09:43;94047.88;;;-1.45;85.00
84714;BME280;74938;42.658;23.248;2023-12-20T05:12:09;94052.25;;;-1.47;85.68
84714;BME280;74938;42.658;23.248;2023-12-20T05:14:34;94053.19;;;-1.48;84.74
84714;BME280;74938;42.658;23.248;2023-12-20T05:16:59;94049.34;;;-1.43;83.98
84714;BME280;74938;42.658;23.248;2023-12-20T05:19:25;94040.63;;;-1.50;85.45
84714;BME280;74938;42.658;23.248;2023-12-20T05:21:51;94044.09;;;-1.51;84.78
84714;BME280;74938;42.658;23.248;2023-12-20T05:24:17;94040.88;;;-1.53;84.84
84714;BME280;74938;42.658;23.248;2023-12-20T05:26:42;94039.59;;;-1.47;84.33
84714;BME280;74938;42.658;23.248;2023-12-20T05:29:07;94035.47;;;-1.08;84.39
84714;BME280;74938;42.658;23.248;2023-12-20T05:31:33;94037.69;;;-1.24;83.45
84714;BME280;74938;42.658;23.248;2023-12-20T05:33:59;94033.56;;;-1.25;83.66
84714;BME280;74938;42.658;23.248;2023-12-20T05:36:24;94023.81;;;-1.20;83.14
84714;BME280;74938;42.658;23.248;2023-12-20T05:38:49;94022.22;;;-1.21;83.30
84714;BME280;74938;42.658;23.248;2023-12-20T05:41:15;94019.09;;;-1.34;83.33
84714;BME280;74938;42.658;23.248;2023-12-20T05:43:41;94023.03;;;-1.51;84.38
84714;BME280;74938;42.658;23.248;2023-12-20T05:46:06;94026.19;;;-1.59;83.48
84714;BME280;74938;42.658;23.248;2023-12-20T05:48:31;94034.28;;;-1.65;84.72
84714;BME280;74938;42.658;23.248;2023-12-20T05:50:57;94029.00;;;-1.52;83.99
84714;BME280;74938;42.658;23.248;2023-12-20T05:53:22;94023.97;;;-1.73;83.62
84714;BME280;74938;42.658;23.248;2023-12-20T05:55:48;94023.56;;;-1.78;83.52
84714;BME280;74938;42.658;23.248;2023-12-20T05:58:13;94019.41;;;-1.79;84.57
84714;BME280;74938;42.658;23.248;2023-12-20T06:00:38;94003.22;;;-1.88;85.04
84714;BME280;74938;42.658;23.248;2023-12-20T06:03:04;94014.34;;;-1.58;84.61
84714;BME280;74938;42.658;23.248;2023-12-20T06:05:30;94002.50;;;-1.79;83.23
84714;BME280;74938;42.658;23.248;2023-12-20T06:07:56;94006.91;;;-1.71;83.19
84714;BME280;74938;42.658;23.248;2023-12-20T06:10:26;94014.25;;;-1.68;82.96
84714;BME280;74938;42.658;23.248;2023-12-20T06:12:52;94008.75;;;-1.73;83.78
84714;BME280;74938;42.658;23.248;2023-12-20T06:15:17;94009.03;;;-1.76;84.22
84714;BME280;74938;42.658;23.248;2023-12-20T06:17:43;94010.44;;;-1.83;84.05
84714;BME280;74938;42.658;23.248;2023-12-20T06:20:08;94017.00;;;-1.81;84.07
84714;BME280;74938;42.658;23.248;2023-12-20T06:22:35;94024.25;;;-1.76;84.48
84714;BME280;74938;42.658;23.248;2023-12-20T06:25:01;94022.22;;;-1.72;83.47
84714;BME280;74938;42.658;23.248;2023-12-20T06:27:28;94017.69;;;-1.79;83.09
84714;BME280;74938;42.658;23.248;2023-12-20T06:29:53;94016.38;;;-1.73;83.10
84714;BME280;74938;42.658;23.248;2023-12-20T06:32:18;94009.03;;;-1.76;83.85
84714;BME280;74938;42.658;23.248;2023-12-20T06:34:44;94010.81;;;-1.67;83.61
84714;BME280;74938;42.658;23.248;2023-12-20T06:37:09;94005.38;;;-1.62;83.39
84714;BME280;74938;42.658;23.248;2023-12-20T06:39:35;94008.34;;;-1.57;82.31
84714;BME280;74938;42.658;23.248;2023-12-20T06:42:00;94011.00;;;-1.59;82.89
84714;BME280;74938;42.658;23.248;2023-12-20T06:44:26;94000.34;;;-1.53;82.42
84714;BME280;74938;42.658;23.248;2023-12-20T06:46:51;94001.81;;;-1.50;82.27
84714;BME280;74938;42.658;23.248;2023-12-20T06:49:17;94005.94;;;-1.59;81.87
84714;BME280;74938;42.658;23.248;2023-12-20T06:51:43;93997.56;;;-1.50;81.34
84714;BME280;74938;42.658;23.248;2023-12-20T06:54:09;93999.66;;;-1.55;82.75
84714;BME280;74938;42.658;23.248;2023-12-20T06:56:34;93996.19;;;-1.54;81.54
84714;BME280;74938;42.658;23.248;2023-12-20T06:58:59;93995.47;;;-1.35;81.71
84714;BME280;74938;42.658;23.248;2023-12-20T07:01:25;93983.59;;;-1.34;82.44
84714;BME280;74938;42.658;23.248;2023-12-20T07:03:50;93976.19;;;-1.26;81.20
84714;BME280;74938;42.658;23.248;2023-12-20T07:06:16;93985.81;;;-1.11;81.02
84714;BME280;74938;42.658;23.248;2023-12-20T07:08:42;93982.66;;;-0.93;80.68
84714;BME280;74938;42.658;23.248;2023-12-20T07:11:07;93975.19;;;-0.85;80.00
84714;BME280;74938;42.658;23.248;2023-12-20T07:13:33;93970.41;;;-0.69;79.79
84714;BME280;74938;42.658;23.248;2023-12-20T07:15:58;93970.50;;;0.07;78.56
84714;BME280;74938;42.658;23.248;2023-12-20T07:18:24;93967.13;;;1.17;74.60
84714;BME280;74938;42.658;23.248;2023-12-20T07:20:49;93973.44;;;2.28;69.57
84714;BME280;74938;42.658;23.248;2023-12-20T07:23:15;93966.78;;;2.95;66.06
84714;BME280;74938;42.658;23.248;2023-12-20T07:25:40;93964.34;;;3.35;63.86
84714;BME280;74938;42.658;23.248;2023-12-20T07:28:06;93960.09;;;2.94;63.55
84714;BME280;74938;42.658;23.248;2023-12-20T07:30:31;93963.22;;;2.20;65.97
84714;BME280;74938;42.658;23.248;2023-12-20T07:32:56;93954.63;;;1.77;67.87
84714;BME280;74938;42.658;23.248;2023-12-20T07:35:23;93962.88;;;1.35;69.65
84714;BME280;74938;42.658;23.248;2023-12-20T07:37:50;93956.78;;;1.01;71.72
84714;BME280;74938;42.658;23.248;2023-12-20T07:40:15;93969.56;;;1.09;71.71
84714;BME280;74938;42.658;23.248;2023-12-20T07:42:42;93963.97;;;0.78;72.47
84714;BME280;74938;42.658;23.248;2023-12-20T07:45:08;93967.28;;;0.61;74.51
84714;BME280;74938;42.658;23.248;2023-12-20T07:47:34;93965.94;;;0.57;73.74
84714;BME280;74938;42.658;23.248;2023-12-20T07:49:59;93965.78;;;0.31;75.24
84714;BME280;74938;42.658;23.248;2023-12-20T07:52:25;93953.22;;;0.20;76.26
84714;BME280;74938;42.658;23.248;2023-12-20T07:54:51;93959.91;;;0.21;76.03
84714;BME280;74938;42.658;23.248;2023-12-20T07:57:16;93958.50;;;0.46;74.74
84714;BME280;74938;42.658;23.248;2023-12-20T07:59:42;93958.91;;;0.41;75.36
84714;BME280;74938;42.658;23.248;2023-12-20T08:02:09;93958.50;;;0.73;75.85
84714;BME280;74938;42.658;23.248;2023-12-20T08:04:35;93948.00;;;1.13;75.06
84714;BME280;74938;42.658;23.248;2023-12-20T08:07:00;93948.94;;;2.61;69.72
84714;BME280;74938;42.658;23.248;2023-12-20T08:09:25;93944.34;;;3.14;66.05
84714;BME280;74938;42.658;23.248;2023-12-20T08:11:51;93952.28;;;4.10;63.66
84714;BME280;74938;42.658;23.248;2023-12-20T08:14:16;93947.81;;;5.46;60.66
84714;BME280;74938;42.658;23.248;2023-12-20T08:16:41;93946.94;;;6.59;56.86
84714;BME280;74938;42.658;23.248;2023-12-20T08:19:07;93941.06;;;7.60;53.02
84714;BME280;74938;42.658;23.248;2023-12-20T08:21:33;93928.69;;;7.71;51.22
84714;BME280;74938;42.658;23.248;2023-12-20T08:23:58;93931.19;;;7.28;52.07
84714;BME280;74938;42.658;23.248;2023-12-20T08:26:26;93929.59;;;6.09;55.23
84714;BME280;74938;42.658;23.248;2023-12-20T08:28:51;93935.66;;;5.93;55.26
84714;BME280;74938;42.658;23.248;2023-12-20T08:31:17;93932.16;;;5.10;57.04
84714;BME280;74938;42.658;23.248;2023-12-20T08:33:47;93930.59;;;4.53;59.79
84714;BME280;74938;42.658;23.248;2023-12-20T08:36:13;93920.94;;;4.25;61.10
84714;BME280;74938;42.658;23.248;2023-12-20T08:38:38;93918.09;;;3.71;63.56
84714;BME280;74938;42.658;23.248;2023-12-20T08:41:04;93918.09;;;3.55;63.84
84714;BME280;74938;42.658;23.248;2023-12-20T08:43:35;93914.50;;;3.07;67.66
84714;BME280;74938;42.658;23.248;2023-12-20T08:46:01;93917.03;;;2.99;67.04
84714;BME280;74938;42.658;23.248;2023-12-20T08:48:27;93903.56;;;2.72;67.79
84714;BME280;74938;42.658;23.248;2023-12-20T08:50:53;93907.88;;;2.80;68.48
84714;BME280;74938;42.658;23.248;2023-12-20T08:53:18;93910.56;;;2.70;69.40
84714;BME280;74938;42.658;23.248;2023-12-20T08:55:44;93907.31;;;2.60;69.53
84714;BME280;74938;42.658;23.248;2023-12-20T08:58:10;93902.78;;;2.46;70.35
84714;BME280;74938;42.658;23.248;2023-12-20T09:00:35;93903.22;;;2.33;71.10
84714;BME280;74938;42.658;23.248;2023-12-20T09:03:01;93892.78;;;2.19;71.88
84714;BME280;74938;42.658;23.248;2023-12-20T09:05:27;93895.16;;;1.86;73.50
84714;BME280;74938;42.658;23.248;2023-12-20T09:07:52;93874.78;;;1.94;73.49
84714;BME280;74938;42.658;23.248;2023-12-20T09:10:18;93867.72;;;2.06;72.85
84714;BME280;74938;42.658;23.248;2023-12-20T09:12:47;93869.47;;;2.05;73.71
84714;BME280;74938;42.658;23.248;2023-12-20T09:15:13;93856.72;;;1.80;73.55
84714;BME280;74938;42.658;23.248;2023-12-20T09:17:38;93844.16;;;1.60;75.13
84714;BME280;74938;42.658;23.248;2023-12-20T09:20:04;93845.03;;;1.69;74.96
84714;BME280;74938;42.658;23.248;2023-12-20T09:22:32;93830.44;;;1.79;75.87
84714;BME280;74938;42.658;23.248;2023-12-20T09:24:57;93823.44;;;1.81;74.90
84714;BME280;74938;42.658;23.248;2023-12-20T09:27:23;93814.66;;;1.75;75.15
84714;BME280;74938;42.658;23.248;2023-12-20T09:29:48;93817.47;;;1.90;74.59
84714;BME280;74938;42.658;23.248;2023-12-20T09:32:14;93815.25;;;1.95;75.52
84714;BME280;74938;42.658;23.248;2023-12-20T09:34:40;93815.94;;;2.05;75.47
84714;BME280;74938;42.658;23.248;2023-12-20T09:37:07;93806.66;;;1.96;75.53
84714;BME280;74938;42.658;23.248;2023-12-20T09:39:33;93802.84;;;2.00;74.72
84714;BME280;74938;42.658;23.248;2023-12-20T09:42:04;93791.06;;;1.99;75.08
84714;BME280;74938;42.658;23.248;2023-12-20T09:44:30;93785.22;;;2.07;74.17
84714;BME280;74938;42.658;23.248;2023-12-20T09:46:57;93789.81;;;2.12;74.69
84714;BME280;74938;42.658;23.248;2023-12-20T09:49:23;93784.13;;;2.18;75.04
84714;BME280;74938;42.658;23.248;2023-12-20T09:51:50;93788.88;;;2.13;74.22
84714;BME280;74938;42.658;23.248;2023-12-20T09:54:20;93776.66;;;2.24;73.97
84714;BME280;74938;42.658;23.248;2023-12-20T09:56:47;93767.56;;;2.22;74.41
84714;BME280;74938;42.658;23.248;2023-12-20T09:59:13;93766.63;;;2.31;73.81
84714;BME280;74938;42.658;23.248;2023-12-20T10:01:42;93766.72;;;2.55;72.57
84714;BME280;74938;42.658;23.248;2023-12-20T10:04:10;93768.03;;;2.75;73.26
84714;BME280;74938;42.658;23.248;2023-12-20T10:06:39;93764.16;;;2.79;72.08
84714;BME280;74938;42.658;23.248;2023-12-20T10:09:05;93765.47;;;2.84;71.45
84714;BME280;74938;42.658;23.248;2023-12-20T10:11:31;93768.00;;;2.84;72.11
84714;BME280;74938;42.658;23.248;2023-12-20T10:14:00;93762.28;;;3.06;72.36
84714;BME280;74938;42.658;23.248;2023-12-20T10:16:29;93748.72;;;3.13;71.31
84714;BME280;74938;42.658;23.248;2023-12-20T10:18:55;93739.63;;;3.03;71.56
84714;BME280;74938;42.658;23.248;2023-12-20T10:21:22;93737.38;;;3.40;70.48
84714;BME280;74938;42.658;23.248;2023-12-20T10:23:48;93741.03;;;3.46;70.40
84714;BME280;74938;42.658;23.248;2023-12-20T10:26:25;93713.41;;;3.41;70.09
84714;BME280;74938;42.658;23.248;2023-12-20T10:28:53;93726.78;;;3.60;70.39
84714;BME280;74938;42.658;23.248;2023-12-20T10:31:33;93712.31;;;3.44;69.94
84714;BME280;74938;42.658;23.248;2023-12-20T10:34:01;93704.13;;;3.48;70.16
84714;BME280;74938;42.658;23.248;2023-12-20T10:36:28;93714.38;;;3.40;71.68
84714;BME280;74938;42.658;23.248;2023-12-20T10:38:55;93695.19;;;3.53;70.89
84714;BME280;74938;42.658;23.248;2023-12-20T10:41:26;93696.44;;;3.57;70.13
84714;BME280;74938;42.658;23.248;2023-12-20T10:43:58;93692.94;;;3.58;69.40
84714;BME280;74938;42.658;23.248;2023-12-20T10:46:24;93703.47;;;3.63;69.99
84714;BME280;74938;42.658;23.248;2023-12-20T10:48:53;93706.94;;;3.70;69.55
84714;BME280;74938;42.658;23.248;2023-12-20T10:51:20;93681.06;;;3.73;70.05
84714;BME280;74938;42.658;23.248;2023-12-20T10:53:47;93688.44;;;3.68;70.14
84714;BME280;74938;42.658;23.248;2023-12-20T10:56:18;93687.13;;;3.80;68.60
84714;BME280;74938;42.658;23.248;2023-12-20T10:58:48;93686.97;;;3.73;69.68
84714;BME280;74938;42.658;23.248;2023-12-20T11:01:14;93664.94;;;3.72;69.93
84714;BME280;74938;42.658;23.248;2023-12-20T11:03:52;93666.84;;;3.78;69.29
84714;BME280;74938;42.658;23.248;2023-12-20T11:09:01;93672.38;;;3.82;70.52
84714;BME280;74938;42.658;23.248;2023-12-20T11:12:02;93661.81;;;3.93;69.35
84714;BME280;74938;42.658;23.248;2023-12-20T11:17:10;93647.66;;;4.13;68.74
84714;BME280;74938;42.658;23.248;2023-12-20T11:22:25;93633.34;;;4.50;67.81
84714;BME280;74938;42.658;23.248;2023-12-20T11:24:52;93620.94;;;4.39;67.51
84714;BME280;74938;42.658;23.248;2023-12-20T11:27:19;93627.31;;;4.43;67.79
84714;BME280;74938;42.658;23.248;2023-12-20T11:29:58;93611.28;;;4.49;68.46
84714;BME280;74938;42.658;23.248;2023-12-20T11:34:58;93599.06;;;4.74;66.09
84714;BME280;74938;42.658;23.248;2023-12-20T11:37:35;93600.16;;;5.09;65.85
84714;BME280;74938;42.658;23.248;2023-12-20T11:40:06;93588.84;;;4.88;65.74
84714;BME280;74938;42.658;23.248;2023-12-20T11:42:33;93585.25;;;4.98;66.07
84714;BME280;74938;42.658;23.248;2023-12-20T11:45:01;93583.94;;;5.02;65.41
84714;BME280;74938;42.658;23.248;2023-12-20T11:47:29;93581.00;;;5.05;66.10
84714;BME280;74938;42.658;23.248;2023-12-20T11:49:55;93570.91;;;5.03;65.67
84714;BME280;74938;42.658;23.248;2023-12-20T11:52:21;93569.97;;;5.04;66.70
84714;BME280;74938;42.658;23.248;2023-12-20T11:54:47;93566.88;;;5.09;66.09
84714;BME280;74938;42.658;23.248;2023-12-20T11:57:13;93556.28;;;5.12;65.97
84714;BME280;74938;42.658;23.248;2023-12-20T11:59:38;93554.00;;;5.17;66.63
84714;BME280;74938;42.658;23.248;2023-12-20T12:02:04;93554.22;;;5.22;66.44
84714;BME280;74938;42.658;23.248;2023-12-20T12:04:29;93538.00;;;5.30;65.73
84714;BME280;74938;42.658;23.248;2023-12-20T12:06:55;93534.59;;;5.44;65.90
84714;BME280;74938;42.658;23.248;2023-12-20T12:09:20;93538.66;;;5.53;64.47
84714;BME280;74938;42.658;23.248;2023-12-20T12:11:45;93520.13;;;5.51;64.91
84714;BME280;74938;42.658;23.248;2023-12-20T12:14:11;93528.13;;;5.63;64.91
84714;BME280;74938;42.658;23.248;2023-12-20T12:16:37;93520.53;;;5.54;64.84
84714;BME280;74938;42.658;23.248;2023-12-20T12:19:02;93511.50;;;5.58;63.76
84714;BME280;74938;42.658;23.248;2023-12-20T12:21:29;93512.56;;;5.64;65.09
84714;BME280;74938;42.658;23.248;2023-12-20T12:24:06;93510.00;;;5.64;64.54
84714;BME280;74938;42.658;23.248;2023-12-20T12:26:31;93501.09;;;5.81;62.25
84714;BME280;74938;42.658;23.248;2023-12-20T12:28:57;93507.28;;;5.51;63.27
84714;BME280;74938;42.658;23.248;2023-12-20T12:31:23;93502.97;;;5.51;63.10
84714;BME280;74938;42.658;23.248;2023-12-20T12:33:50;93510.75;;;5.43;63.38
84714;BME280;74938;42.658;23.248;2023-12-20T12:36:16;93517.19;;;5.39;63.70
84714;BME280;74938;42.658;23.248;2023-12-20T12:38:42;93508.13;;;5.37;65.38
84714;BME280;74938;42.658;23.248;2023-12-20T12:41:08;93514.75;;;5.31;64.50
84714;BME280;74938;42.658;23.248;2023-12-20T12:43:35;93510.41;;;5.32;64.64
84714;BME280;74938;42.658;23.248;2023-12-20T12:46:00;93512.63;;;5.20;64.98
84714;BME280;74938;42.658;23.248;2023-12-20T12:48:26;93508.31;;;5.20;65.71
84714;BME280;74938;42.658;23.248;2023-12-20T12:50:53;93506.91;;;5.18;66.20
84714;BME280;74938;42.658;23.248;2023-12-20T12:53:19;93507.34;;;5.07;66.81
84714;BME280;74938;42.658;23.248;2023-12-20T12:55:45;93502.59;;;4.89;67.33
84714;BME280;74938;42.658;23.248;2023-12-20T12:58:11;93504.69;;;4.85;66.57
84714;BME280;74938;42.658;23.248;2023-12-20T13:00:37;93501.78;;;4.88;67.19